< < Back
Terminal Aerodrome Forecast


Current Version              Previous Versions:   1  2  3  4  5  6  7  8  9  

Terminal Aerodrome Forecast

319
FTAK31 PAJN 011500 AAA
TAFAGS
TAF AMD
PAGS 011508Z 0115/0212 33005KT P6SM BKN150
     FM011800 VRB04KT P6SM SCT150
     FM020000 00000KT P6SM SKC
      AMD LTD TO CLD VIS AND WIND=

Latest METAR

315
SAUS70 KWBC 011500 RRN
MTRAGS
METAR KAGS 011453Z 03007KT 8SM OVC007 03/01 A3055 RMK AO2 SLP344 60000
T00280011 58002


USA.gov is the U.S. government's official web portal to all federal, state and local government web resources and services.